Time;durP1;ratioP1;P1;durP2;ratioP2;P2;SDS_P1;SDS_P2;PMS_P1;PMS_P2;Temp;Humidity;BMP_temperature;BMP_pressure;BME280_temperature;BME280_humidity;BME280_pressure;Samples;Min_cycle;Max_cycle;Signal;HPM_P1;HPM_P2
2022/02/15 00:01:18;;;;;;;2.37;2.17;;;6.40;98.40;;;;;;5138950;27;20250;-45
2022/02/15 00:03:44;;;;;;;2.53;2.13;;;6.30;98.60;;;;;;5140568;27;20489;-43
2022/02/15 00:06:10;;;;;;;2.50;2.30;;;6.30;98.60;;;;;;5139400;27;20175;-41
2022/02/15 00:08:36;;;;;;;3.10;2.80;;;6.30;98.60;;;;;;5139824;27;20180;-40
2022/02/15 00:11:02;;;;;;;3.67;2.50;;;6.30;98.70;;;;;;5137051;27;21148;-42
2022/02/15 00:13:27;;;;;;;3.00;2.50;;;6.30;98.70;;;;;;5138472;27;20520;-42
2022/02/15 00:15:53;;;;;;;2.80;2.30;;;6.30;98.70;;;;;;5138878;27;20407;-46
2022/02/15 00:18:19;;;;;;;2.43;2.23;;;6.30;98.70;;;;;;5137692;27;20261;-42
2022/02/15 00:20:45;;;;;;;2.40;2.20;;;6.30;98.70;;;;;;5138822;27;20474;-42
2022/02/15 00:23:11;;;;;;;4.50;2.40;;;6.30;98.70;;;;;;5138408;27;20302;-45
2022/02/15 00:25:37;;;;;;;2.93;2.60;;;6.20;98.70;;;;;;5139183;27;20183;-42
2022/02/15 00:28:03;;;;;;;3.60;2.47;;;6.20;98.70;;;;;;5140087;27;20420;-42
2022/02/15 00:30:28;;;;;;;3.53;2.50;;;6.20;98.70;;;;;;5138965;27;20433;-42
2022/02/15 00:32:54;;;;;;;3.37;2.90;;;6.20;98.70;;;;;;5140095;27;20471;-40
2022/02/15 00:35:20;;;;;;;2.67;2.40;;;6.20;98.60;;;;;;5139192;27;20188;-40
2022/02/15 00:37:47;;;;;;;4.07;2.57;;;6.20;98.60;;;;;;5139775;27;20226;-42
2022/02/15 00:40:13;;;;;;;3.90;2.83;;;6.20;98.60;;;;;;5138440;27;20405;-40
2022/02/15 00:42:39;;;;;;;3.53;2.43;;;6.20;98.70;;;;;;5139473;27;20329;-44
2022/02/15 00:45:06;;;;;;;3.00;2.43;;;6.20;98.70;;;;;;5120797;27;20429;-42
2022/02/15 00:47:32;;;;;;;3.37;2.80;;;6.10;98.70;;;;;;5139410;27;20525;-44
2022/02/15 00:49:57;;;;;;;3.30;2.50;;;6.10;98.70;;;;;;5138509;27;20409;-41
2022/02/15 00:52:23;;;;;;;3.93;2.83;;;6.10;98.70;;;;;;5139423;27;20179;-40
2022/02/15 00:54:49;;;;;;;6.40;3.30;;;6.10;98.60;;;;;;5139025;27;20274;-42
2022/02/15 00:57:16;;;;;;;4.30;2.57;;;6.00;98.80;;;;;;5120016;27;20772;-44
2022/02/15 00:59:42;;;;;;;3.40;3.00;;;6.00;98.70;;;;;;5139573;27;20443;-41
2022/02/15 01:02:08;;;;;;;5.03;3.40;;;6.00;98.70;;;;;;5121255;27;20421;-40
2022/02/15 01:04:34;;;;;;;2.47;2.27;;;6.00;98.70;;;;;;5139468;27;20461;-42
2022/02/15 01:06:59;;;;;;;2.87;2.57;;;5.90;98.90;;;;;;5138129;27;20634;-44
2022/02/15 01:09:25;;;;;;;3.07;2.77;;;5.90;99.10;;;;;;5139454;27;20179;-45
2022/02/15 01:11:51;;;;;;;6.27;2.37;;;5.80;99.00;;;;;;5138696;27;20176;-42
2022/02/15 01:14:18;;;;;;;3.10;2.80;;;5.80;98.90;;;;;;5138812;27;20197;-42
2022/02/15 01:16:44;;;;;;;2.47;2.20;;;5.80;99.00;;;;;;5139063;27;20455;-45
2022/02/15 01:19:10;;;;;;;3.10;2.17;;;5.80;99.20;;;;;;5139383;27;20464;-43
2022/02/15 01:21:36;;;;;;;3.50;2.30;;;5.70;99.10;;;;;;5138359;27;20866;-45
2022/02/15 01:24:01;;;;;;;3.23;2.40;;;5.70;99.20;;;;;;5138711;27;20819;-46
2022/02/15 01:26:27;;;;;;;3.30;2.70;;;5.70;99.20;;;;;;5137783;27;20182;-41
2022/02/15 01:28:52;;;;;;;3.40;2.60;;;5.70;99.30;;;;;;5139107;27;20183;-43
2022/02/15 01:31:18;;;;;;;3.90;2.53;;;5.70;99.20;;;;;;5137347;27;20171;-46
2022/02/15 01:33:44;;;;;;;3.20;2.57;;;5.70;99.20;;;;;;5139241;27;20191;-46
2022/02/15 01:36:10;;;;;;;2.97;2.10;;;5.70;99.10;;;;;;5137498;27;20417;-42
2022/02/15 01:38:36;;;;;;;4.73;2.77;;;5.70;99.10;;;;;;5139179;27;20183;-46
2022/02/15 01:41:04;;;;;;;3.60;3.03;;;5.70;99.00;;;;;;5137270;27;20316;-46
2022/02/15 01:43:29;;;;;;;3.00;2.30;;;5.70;98.90;;;;;;5138095;27;20207;-42
2022/02/15 01:45:55;;;;;;;4.63;3.10;;;5.60;99.00;;;;;;5137436;27;20435;-45
2022/02/15 01:48:21;;;;;;;2.80;2.53;;;5.70;99.20;;;;;;5138283;27;20175;-43
2022/02/15 01:50:46;;;;;;;3.40;2.60;;;5.70;98.80;;;;;;5137665;28;20167;-41
2022/02/15 01:53:12;;;;;;;4.97;2.70;;;5.70;98.80;;;;;;5138423;28;20265;-43
2022/02/15 01:55:38;;;;;;;4.93;2.50;;;5.70;98.90;;;;;;5137977;28;20456;-46
2022/02/15 01:58:05;;;;;;;3.73;2.90;;;5.70;99.00;;;;;;5138953;28;20271;-46
2022/02/15 02:00:30;;;;;;;4.07;3.37;;;5.70;99.00;;;;;;5119767;28;20874;-41
2022/02/15 02:02:56;;;;;;;3.57;2.50;;;5.60;99.00;;;;;;5138438;28;20468;-39
2022/02/15 02:08:06;;;;;;;2.47;2.27;;;5.70;99.10;;;;;;5138332;28;20240;-42
2022/02/15 02:10:32;;;;;;;4.07;2.57;;;5.70;98.90;;;;;;5137288;28;20417;-41
2022/02/15 02:13:01;;;;;;;4.37;3.77;;;5.70;98.80;;;;;;5138273;28;20557;-45
2022/02/15 02:18:49;;;;;;;4.73;2.40;;;5.60;99.10;;;;;;5136870;28;20885;-43
2022/02/15 02:21:15;;;;;;;4.30;2.80;;;5.60;99.00;;;;;;5138141;28;20412;-46
2022/02/15 02:23:40;;;;;;;4.40;2.80;;;5.60;99.10;;;;;;5136957;27;20306;-43
2022/02/15 02:26:06;;;;;;;2.90;2.70;;;5.50;99.10;;;;;;5138420;28;20431;-46
2022/02/15 02:28:32;;;;;;;3.40;2.40;;;5.50;99.10;;;;;;5137052;28;20172;-45
2022/02/15 02:30:57;;;;;;;6.50;2.63;;;5.50;99.20;;;;;;5138408;28;20175;-46
2022/02/15 02:33:23;;;;;;;3.10;2.80;;;5.40;99.20;;;;;;5120048;28;20433;-46
2022/02/15 02:35:58;;;;;;;3.73;3.23;;;5.40;99.20;;;;;;5137631;28;20266;-46
2022/02/15 02:38:24;;;;;;;5.57;2.87;;;5.40;99.20;;;;;;5138397;28;20633;-45
2022/02/15 02:40:49;;;;;;;3.23;2.93;;;5.40;99.20;;;;;;5137018;28;20504;-45
2022/02/15 02:43:15;;;;;;;5.07;2.63;;;5.40;99.20;;;;;;5137906;28;20322;-46
2022/02/15 02:45:41;;;;;;;2.43;2.23;;;5.40;99.20;;;;;;5136791;28;20218;-46
2022/02/15 02:48:07;;;;;;;4.40;2.57;;;5.30;99.40;;;;;;5138103;28;20178;-45
2022/02/15 02:50:32;;;;;;;4.17;3.07;;;5.30;99.40;;;;;;5137488;28;20405;-46
2022/02/15 02:52:58;;;;;;;4.17;2.97;;;5.30;99.40;;;;;;5138692;27;20275;-45
2022/02/15 02:55:23;;;;;;;5.20;3.37;;;5.30;99.40;;;;;;5140585;27;20187;-42
2022/02/15 02:57:50;;;;;;;3.20;2.80;;;5.30;99.50;;;;;;5141924;27;20180;-43
2022/02/15 03:00:17;;;;;;;3.53;2.60;;;5.30;99.50;;;;;;5139826;27;20176;-43
2022/02/15 03:02:42;;;;;;;4.80;2.97;;;5.40;99.70;;;;;;5123488;27;20428;-41
2022/02/15 03:05:08;;;;;;;3.93;2.73;;;5.40;99.40;;;;;;5122255;27;20416;-41
2022/02/15 03:07:34;;;;;;;4.20;2.97;;;5.40;99.30;;;;;;5141264;27;20186;-46
2022/02/15 03:10:00;;;;;;;4.40;2.97;;;5.50;99.10;;;;;;5140271;27;20774;-41
2022/02/15 03:12:25;;;;;;;3.80;3.40;;;5.50;99.10;;;;;;5123139;27;20211;-42
2022/02/15 03:14:51;;;;;;;3.57;3.03;;;5.50;99.00;;;;;;5140317;27;20168;-44
2022/02/15 03:17:16;;;;;;;2.90;2.60;;;5.60;99.00;;;;;;5123253;27;20519;-42
2022/02/15 03:19:42;;;;;;;4.37;2.90;;;5.60;98.90;;;;;;5140423;27;20648;-41
2022/02/15 03:22:08;;;;;;;3.23;2.60;;;5.60;98.80;;;;;;5141959;27;20533;-43
2022/02/15 03:24:33;;;;;;;6.37;2.73;;;5.60;98.90;;;;;;5141515;27;20222;-43
2022/02/15 03:27:00;;;;;;;3.73;2.57;;;5.60;98.80;;;;;;5140351;27;20561;-46
2022/02/15 03:29:26;;;;;;;6.90;2.90;;;5.70;98.60;;;;;;5141207;27;20248;-46
2022/02/15 03:31:52;;;;;;;10.53;2.40;;;5.70;98.60;;;;;;5139177;27;20421;-43
2022/02/15 03:34:17;;;;;;;4.53;2.80;;;5.70;98.50;;;;;;5140743;27;20684;-46
2022/02/15 03:36:43;;;;;;;4.70;2.17;;;5.80;98.40;;;;;;5139580;27;20172;-42
2022/02/15 03:39:10;;;;;;;2.73;1.70;;;5.70;98.40;;;;;;5140496;27;20179;-43
2022/02/15 03:44:21;;;;;;;3.80;1.80;;;5.70;98.50;;;;;;5140604;27;20913;-42
2022/02/15 03:46:48;;;;;;;4.07;2.17;;;5.80;98.50;;;;;;5139748;27;20452;-41
2022/02/15 03:49:14;;;;;;;3.80;2.00;;;5.80;98.40;;;;;;5140853;27;20743;-45
2022/02/15 03:51:40;;;;;;;2.90;2.17;;;5.80;98.30;;;;;;5140804;27;20516;-43
2022/02/15 03:54:06;;;;;;;3.77;2.30;;;5.80;98.10;;;;;;5139724;27;20184;-41
2022/02/15 03:56:32;;;;;;;2.47;1.70;;;5.80;98.10;;;;;;5140997;27;20428;-44
2022/02/15 03:58:58;;;;;;;3.30;2.33;;;5.70;98.30;;;;;;5139850;27;20421;-45
2022/02/15 04:01:24;;;;;;;3.13;2.30;;;5.70;98.30;;;;;;5140425;27;20526;-42
2022/02/15 04:03:50;;;;;;;3.37;2.80;;;5.70;98.20;;;;;;5138602;27;20477;-41
2022/02/15 04:06:15;;;;;;;5.10;3.13;;;5.70;98.30;;;;;;5139857;27;20190;-46
2022/02/15 04:08:41;;;;;;;4.23;2.90;;;5.70;98.30;;;;;;5120790;27;20172;-39
2022/02/15 04:11:06;;;;;;;5.20;3.13;;;5.70;98.40;;;;;;5140165;27;20183;-46
2022/02/15 04:13:32;;;;;;;4.23;3.03;;;5.60;98.30;;;;;;5139143;27;20502;-46
2022/02/15 04:15:58;;;;;;;3.57;3.03;;;5.60;98.40;;;;;;5140655;27;20211;-42
2022/02/15 04:18:23;;;;;;;5.10;3.20;;;5.50;98.40;;;;;;5138297;27;20232;-42
2022/02/15 04:20:49;;;;;;;4.07;2.83;;;5.50;98.50;;;;;;5140166;27;20525;-44
2022/02/15 04:23:15;;;;;;;6.00;3.87;;;5.50;98.60;;;;;;5139182;27;20473;-45
2022/02/15 04:25:40;;;;;;;4.80;3.23;;;5.50;98.50;;;;;;5139809;27;20271;-46
2022/02/15 04:28:06;;;;;;;3.60;3.30;;;5.50;98.40;;;;;;5138413;27;20176;-45
2022/02/15 04:30:32;;;;;;;6.30;3.30;;;5.60;98.30;;;;;;5139314;27;20179;-44
2022/02/15 04:32:58;;;;;;;7.23;3.37;;;5.60;98.30;;;;;;5138303;27;20171;-45
2022/02/15 04:35:23;;;;;;;7.50;3.40;;;5.60;98.30;;;;;;5139750;27;20451;-45
2022/02/15 04:37:49;;;;;;;5.23;3.70;;;5.60;98.30;;;;;;5138322;27;20313;-41
2022/02/15 04:40:14;;;;;;;6.20;4.10;;;5.60;98.30;;;;;;5139702;27;20189;-46
2022/02/15 04:42:40;;;;;;;4.83;3.57;;;5.50;98.50;;;;;;5137722;27;20279;-46
2022/02/15 04:45:06;;;;;;;7.00;3.40;;;5.50;98.50;;;;;;5139862;27;20316;-42
2022/02/15 04:47:32;;;;;;;4.40;3.10;;;5.50;98.60;;;;;;5138544;27;20186;-45
2022/02/15 04:49:57;;;;;;;5.83;3.63;;;5.40;98.70;;;;;;5139439;27;20835;-40
2022/02/15 04:52:23;;;;;;;4.00;3.30;;;5.50;98.80;;;;;;5137533;27;20163;-45
2022/02/15 04:54:48;;;;;;;4.30;3.23;;;5.50;98.70;;;;;;5138942;27;20179;-45
2022/02/15 04:57:14;;;;;;;5.80;4.10;;;5.40;98.70;;;;;;5119472;27;20475;-45
2022/02/15 04:59:40;;;;;;;4.23;3.57;;;5.40;98.70;;;;;;5138932;27;20244;-42
2022/02/15 05:02:05;;;;;;;3.90;3.43;;;5.50;98.70;;;;;;5136661;27;20186;-42
2022/02/15 05:04:49;;;;;;;5.30;4.80;;;5.40;98.80;;;;;;5137526;27;20715;-38
2022/02/15 05:07:16;;;;;;;5.43;4.33;;;5.50;98.90;;;;;;5136485;27;20199;-38
2022/02/15 05:09:41;;;;;;;6.40;4.60;;;5.60;98.70;;;;;;5138021;27;20414;-40
2022/02/15 05:12:07;;;;;;;5.57;3.90;;;5.50;98.70;;;;;;5136820;27;20431;-38
2022/02/15 05:14:33;;;;;;;4.07;3.67;;;5.50;98.80;;;;;;5137389;27;20420;-39
2022/02/15 05:16:59;;;;;;;5.00;3.33;;;5.50;98.80;;;;;;5135598;27;20734;-42
2022/02/15 05:19:24;;;;;;;5.33;3.47;;;5.50;98.70;;;;;;5137259;27;20222;-40
2022/02/15 05:21:50;;;;;;;5.50;3.80;;;5.50;98.70;;;;;;5135712;27;20572;-42
2022/02/15 05:24:15;;;;;;;9.30;3.63;;;5.50;98.70;;;;;;5137569;27;20211;-38
2022/02/15 05:26:41;;;;;;;6.30;3.10;;;5.50;98.70;;;;;;5137848;27;20613;-38
2022/02/15 05:29:06;;;;;;;4.33;3.43;;;5.50;98.80;;;;;;5137199;27;20270;-39
2022/02/15 05:31:32;;;;;;;4.77;3.60;;;5.50;98.80;;;;;;5120753;27;20268;-40
2022/02/15 05:33:58;;;;;;;5.27;3.47;;;5.40;98.80;;;;;;5137183;27;20186;-39
2022/02/15 05:36:23;;;;;;;4.33;3.27;;;5.50;98.90;;;;;;5138807;27;20442;-42
2022/02/15 05:38:49;;;;;;;4.67;3.80;;;5.40;98.80;;;;;;5137714;27;20175;-43
2022/02/15 05:41:14;;;;;;;3.93;3.40;;;5.50;98.90;;;;;;5138835;27;20178;-42
2022/02/15 05:43:40;;;;;;;5.13;3.80;;;5.40;98.80;;;;;;5137223;27;20570;-42
2022/02/15 05:46:06;;;;;;;6.93;3.70;;;5.40;98.90;;;;;;5138247;27;20171;-38
2022/02/15 05:48:31;;;;;;;5.73;3.60;;;5.40;98.90;;;;;;5136775;27;20175;-42
2022/02/15 05:50:57;;;;;;;4.67;4.00;;;5.40;98.90;;;;;;5137988;28;20172;-42
2022/02/15 05:53:24;;;;;;;8.53;4.30;;;5.40;98.80;;;;;;5117229;28;20207;-42
2022/02/15 05:55:52;;;;;;;9.37;4.40;;;5.50;98.90;;;;;;5137825;28;20172;-42
2022/02/15 05:58:18;;;;;;;5.13;4.07;;;5.50;98.80;;;;;;5135518;28;20497;-39
2022/02/15 06:00:44;;;;;;;4.53;3.70;;;5.50;98.70;;;;;;5136007;28;20985;-42
2022/02/15 06:05:54;;;;;;;4.07;3.33;;;5.50;98.80;;;;;;5137870;28;20450;-42
2022/02/15 06:08:20;;;;;;;4.90;3.97;;;5.50;98.80;;;;;;5136452;28;20421;-41
2022/02/15 06:10:48;;;;;;;7.33;3.57;;;5.50;98.80;;;;;;5136844;28;20176;-38
2022/02/15 06:13:14;;;;;;;4.73;3.87;;;5.50;98.80;;;;;;5120747;28;20259;-43
2022/02/15 06:15:41;;;;;;;4.53;4.13;;;5.50;98.90;;;;;;5135627;28;20428;-42
2022/02/15 06:18:07;;;;;;;5.13;3.40;;;5.50;98.90;;;;;;5133939;28;20560;-38
2022/02/15 06:20:32;;;;;;;5.10;4.13;;;5.60;98.80;;;;;;5134097;28;20886;-40
2022/02/15 06:22:58;;;;;;;3.60;3.03;;;5.60;98.90;;;;;;5133947;28;20183;-39
2022/02/15 06:25:23;;;;;;;6.50;4.60;;;5.60;99.10;;;;;;5131104;28;20198;-41
2022/02/15 06:27:49;;;;;;;5.10;2.77;;;5.70;99.30;;;;;;5135084;27;20183;-39
2022/02/15 06:30:14;;;;;;;3.90;3.53;;;5.70;99.60;;;;;;5137746;27;20197;-42
2022/02/15 06:32:40;;;;;;;4.50;3.30;;;5.70;99.80;;;;;;5136476;27;20263;-38
2022/02/15 06:35:06;;;;;;;3.80;2.93;;;5.70;99.90;;;;;;5139111;27;20661;-40
2022/02/15 06:37:34;;;;;;;4.20;3.30;;;5.70;99.90;;;;;;5136600;27;20176;-38
2022/02/15 06:40:00;;;;;;;5.00;4.03;;;5.70;99.90;;;;;;5136888;27;20701;-40
2022/02/15 06:42:25;;;;;;;6.13;4.30;;;5.60;99.90;;;;;;5137438;27;20443;-38
2022/02/15 06:44:51;;;;;;;6.43;5.10;;;5.60;99.90;;;;;;5120987;27;20460;-41
2022/02/15 06:47:17;;;;;;;6.10;5.00;;;5.60;99.90;;;;;;5138582;27;20970;-40
2022/02/15 06:49:43;;;;;;;8.07;5.10;;;5.60;99.90;;;;;;5119841;27;20424;-39
2022/02/15 06:52:08;;;;;;;6.30;5.17;;;5.60;99.90;;;;;;5138013;27;20259;-40
2022/02/15 06:54:34;;;;;;;7.73;5.63;;;5.50;99.90;;;;;;5140440;27;20194;-39
2022/02/15 06:56:59;;;;;;;6.13;4.80;;;5.50;99.90;;;;;;5139003;27;20248;-38
2022/02/15 06:59:25;;;;;;;8.47;5.30;;;5.50;99.90;;;;;;5138402;27;20187;-38
2022/02/15 07:01:51;;;;;;;5.80;5.20;;;5.60;99.90;;;;;;5135888;27;20183;-43
2022/02/15 07:04:17;;;;;;;5.60;4.27;;;5.60;99.90;;;;;;5118680;27;20203;-38
2022/02/15 07:06:42;;;;;;;5.43;4.40;;;5.60;99.90;;;;;;5136903;27;20226;-38
2022/02/15 07:09:09;;;;;;;6.13;4.07;;;5.60;99.90;;;;;;5137925;27;20823;-40
2022/02/15 07:11:35;;;;;;;5.43;4.13;;;5.70;99.90;;;;;;5139578;27;20167;-40
2022/02/15 07:14:01;;;;;;;6.30;4.20;;;5.60;99.90;;;;;;5140036;27;20432;-44
2022/02/15 07:16:27;;;;;;;6.30;3.97;;;5.60;99.90;;;;;;5144223;27;20442;-39
2022/02/15 07:18:52;;;;;;;5.60;3.73;;;5.70;99.90;;;;;;5143876;27;20465;-43
2022/02/15 07:21:18;;;;;;;5.23;3.40;;;5.70;99.90;;;;;;5142164;27;20231;-39
2022/02/15 07:23:44;;;;;;;5.27;4.20;;;5.80;99.90;;;;;;5143679;27;20214;-42
2022/02/15 07:26:09;;;;;;;5.83;4.23;;;5.80;99.90;;;;;;5143482;27;20182;-40
2022/02/15 07:28:35;;;;;;;5.83;3.67;;;5.90;99.90;;;;;;5142786;27;20445;-39
2022/02/15 07:31:01;;;;;;;8.40;4.60;;;5.90;99.90;;;;;;5147709;27;20207;-40
2022/02/15 07:33:26;;;;;;;5.13;4.20;;;6.00;99.90;;;;;;5145018;27;20183;-39
2022/02/15 07:35:52;;;;;;;8.00;4.30;;;6.00;99.90;;;;;;5145020;27;20224;-41
2022/02/15 07:38:18;;;;;;;5.03;3.47;;;6.10;99.90;;;;;;5138842;27;20179;-40
2022/02/15 07:40:43;;;;;;;3.73;3.33;;;6.20;99.90;;;;;;5139106;27;20232;-38
2022/02/15 07:43:09;;;;;;;4.53;3.27;;;6.30;99.90;;;;;;5136529;27;20222;-39
2022/02/15 07:45:37;;;;;;;5.20;3.47;;;6.40;99.90;;;;;;5139205;27;20176;-38
2022/02/15 07:48:03;;;;;;;11.60;4.57;;;6.50;99.70;;;;;;5137061;27;20270;-40
2022/02/15 07:50:29;;;;;;;5.20;4.10;;;6.50;99.50;;;;;;5138569;27;20493;-39
2022/02/15 07:52:56;;;;;;;5.07;3.57;;;6.40;99.60;;;;;;5137083;27;20433;-38
2022/02/15 07:55:22;;;;;;;3.93;2.77;;;6.30;99.70;;;;;;5138296;27;20172;-41
2022/02/15 07:57:48;;;;;;;4.67;2.97;;;6.20;99.50;;;;;;5124003;27;20832;-39
2022/02/15 08:00:18;;;;;;;3.17;2.87;;;6.20;99.70;;;;;;5117063;28;20242;-39
2022/02/15 08:02:45;;;;;;;3.57;2.40;;;6.10;99.80;;;;;;5115319;28;20478;-41
2022/02/15 08:05:11;;;;;;;3.67;2.93;;;6.10;99.80;;;;;;5117472;28;20827;-41
2022/02/15 08:07:37;;;;;;;4.57;2.73;;;6.10;99.90;;;;;;5116280;28;20493;-39
2022/02/15 08:10:04;;;;;;;2.43;2.20;;;6.10;99.80;;;;;;5117668;28;20263;-42
2022/02/15 08:12:30;;;;;;;2.73;2.40;;;6.20;99.80;;;;;;5115645;28;20438;-40
2022/02/15 08:14:56;;;;;;;3.03;2.10;;;6.20;99.50;;;;;;5116114;28;20458;-45
2022/02/15 08:17:22;;;;;;;2.97;1.90;;;6.20;99.50;;;;;;5098804;28;20537;-40
2022/02/15 08:19:48;;;;;;;2.60;2.30;;;6.20;99.70;;;;;;5118110;28;20183;-38
2022/02/15 08:22:15;;;;;;;4.07;2.07;;;6.30;99.60;;;;;;5120292;28;20769;-38
2022/02/15 08:24:41;;;;;;;2.53;1.70;;;6.40;99.30;;;;;;5118628;28;20477;-40
2022/02/15 08:27:07;;;;;;;2.20;1.93;;;6.40;99.30;;;;;;5118481;28;20410;-40
2022/02/15 08:29:32;;;;;;;3.23;2.00;;;6.50;99.10;;;;;;5118395;28;20260;-42
2022/02/15 08:31:58;;;;;;;2.90;1.90;;;6.60;98.90;;;;;;5120629;28;20452;-39
2022/02/15 08:34:24;;;;;;;3.60;1.97;;;7.00;99.30;;;;;;5099643;28;20241;-41
2022/02/15 08:36:50;;;;;;;5.20;3.50;;;7.40;97.80;;;;;;5117637;28;20410;-42
2022/02/15 08:39:16;;;;;;;3.80;3.40;;;7.70;97.30;;;;;;5116990;28;20180;-40
2022/02/15 08:41:42;;;;;;;1.90;1.70;;;7.80;96.90;;;;;;5117759;28;20517;-39
2022/02/15 08:44:09;;;;;;;1.93;1.57;;;7.60;96.50;;;;;;5116821;28;20726;-38
2022/02/15 08:46:34;;;;;;;1.57;1.43;;;7.40;96.80;;;;;;5097943;28;20906;-40
2022/02/15 08:49:00;;;;;;;1.70;1.37;;;7.40;97.20;;;;;;5116490;28;20426;-39
2022/02/15 08:51:26;;;;;;;2.03;1.50;;;7.30;97.50;;;;;;5115772;28;20621;-40
2022/02/15 08:53:55;;;;;;;2.93;1.83;;;7.50;97.30;;;;;;5118066;28;20186;-40
2022/02/15 08:56:22;;;;;;;2.10;1.77;;;7.70;97.10;;;;;;5101410;28;21119;-41
2022/02/15 08:58:48;;;;;;;2.00;1.57;;;8.10;96.70;;;;;;5117075;28;20840;-39
2022/02/15 09:01:14;;;;;;;4.27;2.13;;;8.30;96.70;;;;;;5115688;28;20436;-40
2022/02/15 09:03:40;;;;;;;2.70;1.80;;;8.40;95.70;;;;;;5116662;28;20853;-40
2022/02/15 09:06:07;;;;;;;4.23;2.00;;;8.60;95.30;;;;;;5116622;28;20418;-39
2022/02/15 09:08:33;;;;;;;2.53;2.13;;;8.30;95.80;;;;;;5115736;28;20521;-41
2022/02/15 09:10:58;;;;;;;3.20;1.53;;;8.10;96.00;;;;;;5116335;28;20412;-39
2022/02/15 09:13:25;;;;;;;2.90;1.87;;;8.00;96.30;;;;;;5098482;28;20430;-40
2022/02/15 09:15:50;;;;;;;2.73;1.73;;;7.80;96.10;;;;;;5114599;28;20421;-39
2022/02/15 09:18:16;;;;;;;3.27;2.53;;;7.60;96.30;;;;;;5114689;28;20485;-39
2022/02/15 09:20:42;;;;;;;3.80;2.57;;;7.50;96.40;;;;;;5096601;28;20626;-39
2022/02/15 09:23:08;;;;;;;2.93;2.50;;;7.60;96.90;;;;;;5115459;28;20227;-38
2022/02/15 09:25:34;;;;;;;2.33;2.00;;;8.00;97.00;;;;;;5078603;28;20434;-42
2022/02/15 09:28:01;;;;;;;2.00;1.50;;;8.60;96.30;;;;;;5115067;28;20425;-39
2022/02/15 09:30:27;;;;;;;2.30;1.43;;;9.10;94.80;;;;;;5113413;28;20525;-39
2022/02/15 09:32:52;;;;;;;1.70;1.53;;;9.00;94.10;;;;;;5115134;28;20440;-39
2022/02/15 09:35:19;;;;;;;1.70;1.60;;;8.80;94.00;;;;;;5114429;28;20465;-39
2022/02/15 09:37:45;;;;;;;1.87;1.60;;;8.80;94.50;;;;;;5114604;28;20191;-39
2022/02/15 09:40:11;;;;;;;3.23;2.60;;;8.70;94.30;;;;;;5115838;28;20422;-42
2022/02/15 09:42:39;;;;;;;1.87;1.60;;;8.60;94.30;;;;;;5114736;28;20430;-39
2022/02/15 09:45:09;;;;;;;2.40;1.70;;;8.30;94.50;;;;;;5116838;28;20465;-40
2022/02/15 09:47:37;;;;;;;1.97;1.73;;;8.40;94.90;;;;;;5115459;28;20870;-39
2022/02/15 09:50:07;;;;;;;2.30;2.03;;;8.50;95.30;;;;;;5099878;28;20421;-38
2022/02/15 09:52:34;;;;;;;2.90;1.93;;;9.40;94.50;;;;;;5114517;28;20441;-40
2022/02/15 09:55:00;;;;;;;2.60;1.80;;;10.10;91.60;;;;;;5115710;28;20835;-40
2022/02/15 09:57:26;;;;;;;3.83;2.30;;;10.80;90.90;;;;;;5114603;28;20429;-42
2022/02/15 09:59:52;;;;;;;2.80;1.70;;;12.30;87.50;;;;;;5116029;28;20805;-39
2022/02/15 10:02:23;;;;;;;5.73;2.27;;;13.30;79.20;;;;;;5115141;28;20426;-43
2022/02/15 10:04:52;;;;;;;2.20;1.87;;;13.40;75.90;;;;;;5118581;28;20480;-45
2022/02/15 10:07:18;;;;;;;2.40;2.07;;;12.80;75.20;;;;;;5117665;28;20813;-41
2022/02/15 10:09:49;;;;;;;2.27;2.07;;;12.50;76.80;;;;;;5118623;28;20461;-39
2022/02/15 10:12:15;;;;;;;2.23;1.93;;;12.20;76.70;;;;;;5119032;28;20430;-40
2022/02/15 10:14:43;;;;;;;3.40;2.33;;;11.70;77.40;;;;;;5118405;28;20955;-39
2022/02/15 10:17:13;;;;;;;1.80;1.60;;;10.90;76.40;;;;;;5127756;27;20682;-39
2022/02/15 10:19:38;;;;;;;3.10;2.20;;;10.50;81.10;;;;;;5138866;27;20891;-39
2022/02/15 10:22:05;;;;;;;1.93;1.60;;;10.40;81.80;;;;;;5138258;27;20535;-40
2022/02/15 10:24:32;;;;;;;2.57;1.77;;;10.10;80.10;;;;;;5140640;27;20207;-45
2022/02/15 10:26:59;;;;;;;2.63;1.60;;;9.70;81.60;;;;;;5121601;27;20710;-43
2022/02/15 10:29:36;;;;;;;3.53;1.53;;;9.40;82.10;;;;;;5139420;27;20393;-41
2022/02/15 10:32:04;;;;;;;3.93;1.70;;;9.20;82.60;;;;;;5138627;27;20424;-42
2022/02/15 10:34:30;;;;;;;3.20;1.97;;;8.90;82.30;;;;;;5139992;27;20415;-39
2022/02/15 10:37:04;;;;;;;6.00;4.87;;;8.60;83.30;;;;;;5138188;27;20505;-45
2022/02/15 10:39:38;;;;;;;3.17;1.90;;;8.60;84.70;;;;;;5141902;27;20417;-40
2022/02/15 10:42:12;;;;;;;3.40;2.17;;;8.50;84.80;;;;;;5120768;27;20429;-43
2022/02/15 10:45:08;;;;;;;2.30;1.97;;;8.40;85.90;;;;;;5138973;27;20468;-43
2022/02/15 10:47:40;;;;;;;3.77;1.70;;;8.50;85.50;;;;;;5116039;27;20570;-41
2022/02/15 10:50:11;;;;;;;2.70;1.80;;;8.40;85.20;;;;;;5138618;27;20870;-41
2022/02/15 10:52:37;;;;;;;6.50;1.70;;;8.10;84.70;;;;;;5137792;27;20432;-40
2022/02/15 10:55:04;;;;;;;2.10;1.90;;;7.80;85.40;;;;;;5139083;27;20432;-40
2022/02/15 10:57:30;;;;;;;1.90;1.40;;;7.80;86.50;;;;;;5136263;27;20424;-41
2022/02/15 10:59:57;;;;;;;1.90;1.40;;;7.80;86.60;;;;;;5137968;27;20578;-42
2022/02/15 11:02:26;;;;;;;3.23;1.83;;;7.80;86.70;;;;;;5117844;27;20182;-39
2022/02/15 11:04:56;;;;;;;3.07;2.00;;;7.80;87.30;;;;;;5138077;27;20461;-39
2022/02/15 11:07:26;;;;;;;2.40;1.77;;;7.90;87.60;;;;;;5119915;27;20489;-42
2022/02/15 11:09:57;;;;;;;3.70;2.27;;;8.00;87.60;;;;;;5140544;27;20413;-42
2022/02/15 11:12:44;;;;;;;2.13;1.80;;;8.10;87.40;;;;;;5138468;27;20453;-40
2022/02/15 11:15:11;;;;;;;4.93;2.10;;;8.00;87.50;;;;;;5135359;27;20821;-39
2022/02/15 11:17:48;;;;;;;6.97;2.87;;;7.90;87.40;;;;;;5137842;27;20490;-41
2022/02/15 11:20:17;;;;;;;5.10;3.10;;;8.00;87.80;;;;;;5135734;27;20706;-43
2022/02/15 11:22:45;;;;;;;6.27;2.53;;;8.20;87.20;;;;;;5117770;27;20471;-43
2022/02/15 11:25:11;;;;;;;6.20;2.30;;;8.10;87.20;;;;;;5138415;27;20472;-39
2022/02/15 11:27:36;;;;;;;4.70;2.40;;;8.10;87.60;;;;;;5136523;27;20821;-42
2022/02/15 11:30:03;;;;;;;3.67;2.30;;;8.10;87.00;;;;;;5137034;27;20428;-41
2022/02/15 11:32:34;;;;;;;4.70;2.70;;;8.00;85.60;;;;;;5118925;27;20215;-41
2022/02/15 11:35:10;;;;;;;3.17;2.17;;;7.80;85.90;;;;;;5136235;27;20615;-43
2022/02/15 11:37:38;;;;;;;3.47;2.70;;;7.70;87.00;;;;;;5137961;27;20453;-44
2022/02/15 11:40:08;;;;;;;5.70;2.60;;;7.80;88.00;;;;;;5122432;27;20453;-41
2022/02/15 11:42:48;;;;;;;3.33;2.60;;;8.20;87.60;;;;;;5118450;28;20422;-42
2022/02/15 11:45:28;;;;;;;5.53;3.53;;;8.50;85.10;;;;;;5118715;28;20476;-44
2022/02/15 11:48:08;;;;;;;3.50;2.03;;;8.70;83.50;;;;;;5118382;28;20498;-40
2022/02/15 11:50:42;;;;;;;2.23;1.93;;;8.80;80.40;;;;;;5129821;27;20623;-40
2022/02/15 11:53:09;;;;;;;2.33;1.70;;;8.80;78.10;;;;;;5138546;27;20416;-39
2022/02/15 11:55:38;;;;;;;2.90;2.03;;;8.80;78.10;;;;;;5104095;27;20433;-40
2022/02/15 11:58:08;;;;;;;3.10;2.10;;;8.80;77.90;;;;;;5133512;27;20449;-43
2022/02/15 12:00:35;;;;;;;2.90;2.27;;;8.70;78.10;;;;;;5131900;27;20433;-43
2022/02/15 12:03:03;;;;;;;5.13;3.47;;;8.70;78.10;;;;;;5138153;27;20512;-40
2022/02/15 12:05:30;;;;;;;3.43;2.77;;;8.90;78.50;;;;;;5138872;27;20706;-40
2022/02/15 12:07:57;;;;;;;4.97;1.80;;;9.60;76.70;;;;;;5103850;28;20430;-41
2022/02/15 12:10:24;;;;;;;2.53;2.00;;;10.60;72.50;;;;;;5124369;27;20436;-42
2022/02/15 12:12:52;;;;;;;4.27;3.20;;;11.00;69.30;;;;;;5137006;27;21003;-40
2022/02/15 12:15:18;;;;;;;2.77;2.30;;;11.20;68.80;;;;;;5137903;27;20524;-40
2022/02/15 12:17:45;;;;;;;3.50;2.67;;;11.30;67.90;;;;;;5132773;27;20529;-40
2022/02/15 12:20:14;;;;;;;3.10;2.57;;;11.10;66.20;;;;;;5125979;27;20908;-41
2022/02/15 12:22:42;;;;;;;3.33;2.33;;;10.60;67.20;;;;;;5114758;28;20421;-41
2022/02/15 12:25:08;;;;;;;6.60;2.83;;;10.20;68.40;;;;;;5116721;27;20489;-45
2022/02/15 12:27:34;;;;;;;3.67;2.07;;;9.80;71.10;;;;;;5115580;28;20414;-40
2022/02/15 12:30:00;;;;;;;3.07;2.40;;;9.50;72.10;;;;;;5113965;28;20858;-41
2022/02/15 12:32:29;;;;;;;2.83;2.57;;;9.30;73.80;;;;;;5116068;28;20198;-40
2022/02/15 12:34:56;;;;;;;3.90;2.70;;;9.00;74.50;;;;;;5114735;28;20253;-41
2022/02/15 12:37:27;;;;;;;3.23;2.93;;;8.90;75.00;;;;;;5116331;28;20421;-40
2022/02/15 12:39:57;;;;;;;3.70;2.47;;;8.70;75.30;;;;;;5114318;28;20436;-41
2022/02/15 12:42:26;;;;;;;4.50;2.20;;;8.80;76.20;;;;;;5115158;28;20520;-42
2022/02/15 12:45:01;;;;;;;5.10;2.80;;;9.00;76.50;;;;;;5112608;28;20480;-40
2022/02/15 12:47:28;;;;;;;2.87;2.67;;;9.20;76.70;;;;;;5115761;28;20410;-42
2022/02/15 12:49:55;;;;;;;3.93;2.40;;;9.10;76.90;;;;;;5113602;28;20454;-39
2022/02/15 12:52:27;;;;;;;4.30;2.57;;;9.90;77.70;;;;;;5115466;28;20672;-41
2022/02/15 12:54:58;;;;;;;3.60;2.70;;;10.70;73.60;;;;;;5096253;28;20751;-46
2022/02/15 12:57:25;;;;;;;2.70;1.73;;;11.00;72.20;;;;;;5115644;28;20464;-41
2022/02/15 13:00:01;;;;;;;3.73;2.20;;;11.30;71.50;;;;;;5113083;28;20839;-39
2022/02/15 13:02:27;;;;;;;1.97;1.60;;;11.90;78.70;;;;;;5114754;28;20684;-39
2022/02/15 13:05:00;;;;;;;4.47;2.20;;;12.30;75.00;;;;;;5095474;28;20483;-39